createdAt,value
2019-05-09T00:00:33.576Z,9.63
2019-05-09T00:03:03.548Z,9.47
2019-05-09T00:05:37.453Z,10.00
2019-05-09T00:08:14.941Z,9.77
2019-05-09T00:10:44.905Z,9.50
2019-05-09T00:13:17.485Z,9.60
2019-05-09T00:15:46.481Z,10.30
2019-05-09T00:18:15.424Z,10.23
2019-05-09T00:20:50.127Z,9.17
2019-05-09T00:23:19.112Z,10.03
2019-05-09T00:25:48.338Z,10.10
2019-05-09T00:28:17.324Z,9.50
2019-05-09T00:31:00.190Z,9.23
2019-05-09T00:33:34.384Z,9.70
2019-05-09T00:36:05.274Z,10.40
2019-05-09T00:38:43.450Z,10.37
2019-05-09T00:41:14.047Z,9.93
2019-05-09T00:43:47.995Z,10.73
2019-05-09T00:46:28.239Z,10.13
2019-05-09T00:49:09.390Z,10.77
2019-05-09T00:51:38.358Z,11.00
2019-05-09T00:54:07.388Z,10.77
2019-05-09T00:56:36.372Z,11.47
2019-05-09T00:59:05.382Z,11.07
2019-05-09T01:01:35.396Z,12.00
2019-05-09T01:04:04.637Z,11.40
2019-05-09T01:06:33.979Z,12.03
2019-05-09T01:09:04.319Z,11.17
2019-05-09T01:11:33.701Z,12.47
2019-05-09T01:14:03.635Z,12.73
2019-05-09T01:16:34.478Z,12.40
2019-05-09T01:19:05.221Z,12.50
2019-05-09T01:21:34.217Z,12.57
2019-05-09T01:24:03.538Z,12.47
2019-05-09T01:26:33.413Z,11.83
2019-05-09T01:29:06.020Z,11.23
2019-05-09T01:31:35.053Z,12.77
2019-05-09T01:34:26.493Z,12.63
2019-05-09T01:37:05.774Z,12.10
2019-05-09T01:39:36.970Z,12.30
2019-05-09T01:42:05.997Z,12.73
2019-05-09T01:44:35.129Z,11.53
2019-05-09T01:47:04.835Z,10.97
2019-05-09T01:49:34.308Z,11.23
2019-05-09T01:52:03.746Z,11.17
2019-05-09T01:54:34.793Z,11.17
2019-05-09T01:57:03.903Z,10.07
2019-05-09T01:59:34.007Z,9.97
2019-05-09T02:02:08.167Z,10.83
2019-05-09T02:04:34.259Z,10.90
2019-05-09T02:07:04.886Z,10.70
2019-05-09T02:09:36.935Z,10.97
2019-05-09T02:12:05.910Z,10.10
2019-05-09T02:14:47.595Z,10.17
2019-05-09T02:17:24.200Z,10.07
2019-05-09T02:19:53.350Z,10.60
2019-05-09T02:22:34.938Z,10.33
2019-05-09T02:25:05.586Z,10.60
2019-05-09T02:27:34.637Z,9.77
2019-05-09T02:30:05.797Z,9.57
2019-05-09T02:32:34.835Z,9.70
2019-05-09T02:35:05.002Z,10.10
2019-05-09T02:37:34.342Z,9.57
2019-05-09T02:40:03.393Z,10.07
2019-05-09T02:42:32.487Z,9.80
2019-05-09T02:45:01.575Z,8.97
2019-05-09T02:47:30.505Z,9.27
2019-05-09T02:49:59.599Z,9.73
2019-05-09T02:52:28.870Z,10.97
2019-05-09T02:54:58.532Z,9.53
2019-05-09T02:57:29.306Z,9.03
2019-05-09T03:00:34.702Z,10.30
2019-05-09T03:03:09.262Z,9.33
2019-05-09T03:05:38.880Z,9.87
2019-05-09T03:08:09.208Z,9.57
2019-05-09T03:10:38.886Z,10.07
2019-05-09T03:13:10.501Z,9.80
2019-05-09T03:15:39.991Z,9.97
2019-05-09T03:18:09.403Z,9.80
2019-05-09T03:21:03.727Z,10.00
2019-05-09T03:23:32.632Z,9.87
2019-05-09T03:26:01.557Z,10.07
2019-05-09T03:29:08.566Z,9.93
2019-05-09T03:31:39.314Z,9.50
2019-05-09T03:34:09.415Z,9.30
2019-05-09T03:36:38.563Z,10.17
2019-05-09T03:39:08.250Z,10.10
2019-05-09T03:41:39.451Z,8.90
2019-05-09T03:44:09.678Z,9.50
2019-05-09T03:47:00.784Z,10.13
2019-05-09T03:49:31.869Z,10.23
2019-05-09T03:52:02.448Z,9.60
2019-05-09T03:54:32.922Z,10.90
2019-05-09T03:57:08.354Z,10.03
2019-05-09T03:59:38.068Z,9.83
2019-05-09T04:02:09.874Z,10.77
2019-05-09T04:04:38.344Z,10.57
2019-05-09T04:07:08.473Z,9.97
2019-05-09T04:09:39.682Z,10.00
2019-05-09T04:12:08.246Z,10.97
2019-05-09T04:14:40.551Z,10.43
2019-05-09T04:17:12.289Z,10.20
2019-05-09T04:19:41.249Z,10.10
2019-05-09T04:22:10.339Z,10.90
2019-05-09T04:24:39.312Z,9.73
2019-05-09T04:27:11.857Z,10.43
2019-05-09T04:29:40.766Z,10.47
2019-05-09T04:32:09.679Z,11.07
2019-05-09T04:34:38.683Z,11.40
2019-05-09T04:37:08.126Z,11.00
2019-05-09T04:39:40.783Z,10.70
2019-05-09T04:42:09.933Z,11.10
2019-05-09T04:44:49.842Z,11.47
2019-05-09T04:47:18.026Z,11.30
2019-05-09T04:49:47.921Z,11.13
2019-05-09T04:52:18.097Z,10.60
2019-05-09T04:54:48.462Z,12.80
2019-05-09T04:57:20.786Z,10.80
2019-05-09T04:59:49.769Z,11.33
2019-05-09T05:02:38.375Z,12.60
2019-05-09T05:05:07.941Z,11.90
2019-05-09T05:07:37.597Z,11.83
2019-05-09T05:10:08.982Z,12.57
2019-05-09T05:12:38.269Z,11.70
2019-05-09T05:15:11.454Z,13.63
2019-05-09T05:17:41.965Z,13.37
2019-05-09T05:20:14.672Z,12.27
2019-05-09T05:22:49.091Z,15.17
2019-05-09T05:25:18.206Z,15.17
2019-05-09T05:27:47.624Z,14.17
2019-05-09T05:30:17.996Z,15.13
2019-05-09T05:32:57.897Z,16.17
2019-05-09T05:35:38.940Z,13.97
2019-05-09T05:38:09.883Z,14.27
2019-05-09T05:40:46.509Z,15.40
2019-05-09T05:43:17.425Z,14.77
2019-05-09T05:45:55.153Z,13.93
2019-05-09T05:48:27.963Z,13.00
2019-05-09T05:50:57.796Z,14.23
2019-05-09T05:53:29.848Z,13.17
2019-05-09T05:55:58.868Z,13.03
2019-05-09T05:58:28.326Z,13.20
2019-05-09T06:01:04.558Z,12.43
2019-05-09T06:03:29.905Z,11.87
2019-05-09T06:06:00.870Z,12.67
2019-05-09T06:08:29.757Z,12.13
2019-05-09T06:10:58.940Z,11.90
2019-05-09T06:13:30.309Z,12.57
2019-05-09T06:15:59.201Z,13.00
2019-05-09T06:18:28.158Z,13.07
2019-05-09T06:20:58.338Z,13.27
2019-05-09T06:23:28.278Z,12.17
2019-05-09T06:25:58.808Z,13.17
2019-05-09T06:28:28.082Z,13.27
2019-05-09T06:30:58.498Z,13.10
2019-05-09T06:33:30.048Z,12.40
2019-05-09T06:35:59.157Z,13.37
2019-05-09T06:38:28.385Z,14.07
2019-05-09T06:40:58.125Z,14.90
2019-05-09T06:43:29.176Z,14.03
2019-05-09T06:46:13.247Z,14.67
2019-05-09T06:48:44.825Z,14.13
2019-05-09T06:51:20.677Z,14.17
2019-05-09T06:53:48.840Z,13.43
2019-05-09T06:56:18.473Z,14.13
2019-05-09T06:58:48.111Z,14.37
2019-05-09T07:01:28.528Z,15.47
2019-05-09T07:04:02.754Z,15.57
2019-05-09T07:06:41.012Z,15.60
2019-05-09T07:09:20.241Z,15.93
2019-05-09T07:11:52.106Z,14.77
2019-05-09T07:14:34.017Z,14.23
2019-05-09T07:17:02.463Z,14.83
2019-05-09T07:19:31.370Z,15.33
2019-05-09T07:22:03.883Z,15.67
2019-05-09T07:24:41.766Z,16.50
2019-05-09T07:27:14.119Z,16.13
2019-05-09T07:29:43.321Z,17.40
2019-05-09T07:32:14.828Z,18.30
2019-05-09T07:34:47.896Z,18.77
2019-05-09T07:37:18.630Z,18.47
2019-05-09T07:39:48.436Z,21.57
2019-05-09T07:42:18.119Z,22.90
2019-05-09T07:44:52.063Z,19.20
2019-05-09T07:47:19.259Z,20.63
2019-05-09T07:49:49.506Z,20.90
2019-05-09T07:52:21.441Z,20.03
2019-05-09T07:54:50.682Z,19.83
2019-05-09T07:57:19.803Z,21.30
2019-05-09T07:59:53.877Z,21.13
2019-05-09T08:02:22.794Z,22.03
2019-05-09T08:04:52.026Z,23.70
2019-05-09T08:07:21.905Z,20.67
2019-05-09T08:09:51.034Z,19.33
2019-05-09T08:12:20.488Z,22.37
2019-05-09T08:15:07.306Z,20.87
2019-05-09T08:17:21.218Z,21.77
2019-05-09T08:19:50.461Z,20.93
2019-05-09T08:22:21.334Z,22.30
2019-05-09T08:24:49.994Z,21.43
2019-05-09T08:27:19.111Z,20.53
2019-05-09T08:29:48.515Z,22.07
2019-05-09T08:32:18.079Z,22.20
2019-05-09T08:34:48.258Z,23.00
2019-05-09T08:37:19.376Z,33.27
2019-05-09T08:39:48.763Z,28.67
2019-05-09T08:42:20.119Z,34.63
2019-05-09T08:44:48.390Z,38.73
2019-05-09T08:47:18.468Z,35.63
2019-05-09T08:50:09.034Z,31.47
2019-05-09T08:52:37.971Z,46.53
2019-05-09T08:55:10.089Z,26.97
2019-05-09T08:57:39.143Z,27.17
2019-05-09T09:00:09.947Z,26.33
2019-05-09T09:02:38.912Z,27.53
2019-05-09T09:05:08.814Z,26.20
2019-05-09T09:07:38.101Z,27.40
2019-05-09T09:10:08.632Z,26.73
2019-05-09T09:12:38.544Z,30.23
2019-05-09T09:15:07.960Z,29.63
2019-05-09T09:17:38.586Z,28.13
2019-05-09T09:20:07.927Z,28.33
2019-05-09T09:22:37.635Z,26.83
2019-05-09T09:25:07.659Z,26.53
2019-05-09T09:27:38.047Z,25.83
2019-05-09T09:30:17.664Z,27.03
2019-05-09T09:32:38.891Z,24.53
2019-05-09T09:35:08.255Z,25.37
2019-05-09T09:37:47.543Z,27.87
2019-05-09T09:40:08.623Z,26.90
2019-05-09T09:42:39.752Z,28.67
2019-05-09T09:45:08.891Z,27.97
2019-05-09T09:47:40.647Z,28.37
2019-05-09T09:50:09.898Z,27.27
2019-05-09T09:52:38.809Z,26.73
2019-05-09T09:55:09.032Z,27.47
2019-05-09T09:57:42.974Z,27.63
2019-05-09T10:00:26.922Z,26.33
2019-05-09T10:02:55.866Z,25.47
2019-05-09T10:05:24.806Z,24.67
2019-05-09T10:07:53.867Z,25.00
2019-05-09T10:10:35.358Z,28.27
2019-05-09T10:13:10.504Z,29.93
2019-05-09T10:15:49.511Z,29.77
2019-05-09T10:18:27.588Z,33.67
2019-05-09T10:21:05.876Z,31.43
2019-05-09T10:23:37.596Z,29.70
2019-05-09T10:26:08.238Z,26.53
2019-05-09T10:28:37.971Z,25.77
2019-05-09T10:31:06.831Z,23.93
2019-05-09T10:33:38.695Z,21.37
2019-05-09T10:36:08.440Z,24.60
2019-05-09T10:38:38.564Z,23.97
2019-05-09T10:41:11.357Z,23.93
2019-05-09T10:44:08.338Z,22.13
2019-05-09T10:47:02.513Z,25.17
2019-05-09T10:49:32.053Z,25.20
2019-05-09T10:52:01.022Z,21.90
2019-05-09T10:54:36.698Z,23.57
2019-05-09T10:57:08.900Z,26.00
2019-05-09T10:59:37.821Z,25.90
2019-05-09T11:02:09.489Z,24.67
2019-05-09T11:04:42.086Z,24.73
2019-05-09T11:07:09.379Z,26.90
2019-05-09T11:09:39.022Z,27.03
2019-05-09T11:12:08.564Z,25.97
2019-05-09T11:14:38.252Z,26.00
2019-05-09T11:17:17.637Z,27.07
2019-05-09T11:19:38.794Z,27.87
2019-05-09T11:22:08.186Z,29.30
2019-05-09T11:24:45.878Z,30.10
2019-05-09T11:27:11.040Z,29.10
2019-05-09T11:29:41.660Z,26.40
2019-05-09T11:32:11.825Z,31.90
2019-05-09T11:34:40.793Z,27.97
2019-05-09T11:37:09.743Z,26.87
2019-05-09T11:39:42.083Z,26.17
2019-05-09T11:42:09.329Z,27.00
2019-05-09T11:44:38.564Z,51.70
2019-05-09T11:47:23.996Z,24.33
2019-05-09T11:49:40.852Z,28.30
2019-05-09T11:52:09.814Z,26.30
2019-05-09T11:54:38.936Z,20.40
2019-05-09T11:57:08.017Z,22.27
2019-05-09T11:59:37.901Z,20.77
2019-05-09T12:02:08.941Z,21.20
2019-05-09T12:04:38.216Z,17.40
2019-05-09T12:07:07.951Z,20.87
2019-05-09T12:09:38.513Z,22.50
2019-05-09T12:12:07.833Z,21.93
2019-05-09T12:14:41.230Z,16.47
2019-05-09T12:17:12.068Z,16.63
2019-05-09T12:19:41.237Z,25.53
2019-05-09T12:22:10.256Z,17.70
2019-05-09T12:24:39.205Z,15.90
2019-05-09T12:27:08.863Z,14.20
2019-05-09T12:29:38.730Z,14.03
2019-05-09T12:32:08.729Z,14.93
2019-05-09T12:34:38.533Z,15.57
2019-05-09T12:37:09.467Z,15.60
2019-05-09T12:39:38.050Z,16.87
2019-05-09T12:42:08.839Z,75.73
2019-05-09T12:44:40.475Z,24.57
2019-05-09T12:47:09.625Z,59.47
2019-05-09T12:49:38.792Z,42.90
2019-05-09T12:52:08.522Z,85.67
2019-05-09T12:54:38.663Z,82.13
2019-05-09T12:57:08.156Z,19.23
2019-05-09T12:59:46.445Z,91.80
2019-05-09T13:02:10.740Z,18.17
2019-05-09T13:04:39.824Z,13.30
2019-05-09T13:07:09.090Z,17.77
2019-05-09T13:09:38.403Z,15.90
2019-05-09T13:12:08.658Z,20.57
2019-05-09T13:14:38.078Z,86.67
2019-05-09T13:17:27.237Z,164.77
2019-05-09T13:19:58.494Z,77.23
2019-05-09T13:22:28.433Z,105.90
2019-05-09T13:24:58.797Z,219.97
2019-05-09T13:27:28.659Z,17.67
2019-05-09T13:29:57.704Z,55.90
2019-05-09T13:32:27.989Z,24.97
2019-05-09T13:34:57.873Z,24.60
2019-05-09T13:37:29.473Z,36.90
2019-05-09T13:39:58.582Z,35.00
2019-05-09T13:42:28.554Z,19.43
2019-05-09T13:44:58.744Z,22.63
2019-05-09T13:47:29.747Z,13.37
2019-05-09T13:49:59.312Z,12.97
2019-05-09T13:52:28.316Z,12.73
2019-05-09T13:54:58.666Z,12.33
2019-05-09T13:57:27.875Z,16.63
2019-05-09T14:00:00.457Z,12.77
2019-05-09T14:02:29.655Z,13.43
2019-05-09T14:04:58.653Z,18.00
2019-05-09T14:07:27.991Z,26.23
2019-05-09T14:09:57.341Z,26.00
2019-05-09T14:12:28.773Z,32.80
2019-05-09T14:14:58.277Z,16.73
2019-05-09T14:17:44.857Z,15.03
2019-05-09T14:20:00.845Z,10.90
2019-05-09T14:22:30.307Z,13.97
2019-05-09T14:24:59.387Z,11.57
2019-05-09T14:27:29.030Z,14.37
2019-05-09T14:29:59.518Z,10.20
2019-05-09T14:32:31.183Z,12.40
2019-05-09T14:34:59.751Z,16.80
2019-05-09T14:37:29.381Z,15.57
2019-05-09T14:40:04.405Z,15.80
2019-05-09T14:42:32.118Z,11.00
2019-05-09T14:45:01.441Z,9.17
2019-05-09T14:47:30.606Z,10.43
2019-05-09T14:49:59.747Z,9.10
2019-05-09T14:52:28.859Z,10.13
2019-05-09T14:55:00.864Z,11.83
2019-05-09T14:57:33.025Z,22.13
2019-05-09T15:00:04.648Z,19.10
2019-05-09T15:02:33.676Z,20.37
2019-05-09T15:05:03.601Z,10.33
2019-05-09T15:07:32.973Z,9.73
2019-05-09T15:10:02.174Z,10.73
2019-05-09T15:12:31.325Z,9.13
2019-05-09T15:15:02.688Z,15.57
2019-05-09T15:17:35.479Z,8.60
2019-05-09T15:20:04.592Z,6.83
2019-05-09T15:22:33.810Z,7.60
2019-05-09T15:25:03.190Z,9.70
2019-05-09T15:27:32.307Z,9.23
2019-05-09T15:30:04.381Z,21.67
2019-05-09T15:32:33.569Z,9.93
2019-05-09T15:35:02.741Z,24.43
2019-05-09T15:37:31.706Z,16.97
2019-05-09T15:40:00.986Z,58.13
2019-05-09T15:42:30.672Z,31.17
2019-05-09T15:44:59.657Z,38.10
2019-05-09T15:47:32.115Z,117.77
2019-05-09T15:50:15.542Z,660.73
2019-05-09T15:52:31.805Z,592.63
2019-05-09T15:55:00.851Z,451.37
2019-05-09T15:57:29.856Z,193.00
2019-05-09T15:59:59.998Z,76.13
2019-05-09T16:02:28.900Z,50.60
2019-05-09T16:04:58.412Z,48.97
2019-05-09T16:07:28.496Z,45.00
2019-05-09T16:09:58.139Z,54.37
2019-05-09T16:12:27.844Z,79.43
2019-05-09T16:14:57.126Z,75.20
2019-05-09T16:17:28.508Z,66.23
2019-05-09T16:19:57.733Z,90.43
2019-05-09T16:22:28.362Z,89.67
2019-05-09T16:24:57.810Z,140.23
2019-05-09T16:27:27.598Z,107.30
2019-05-09T16:30:04.315Z,107.53
2019-05-09T16:32:33.332Z,105.87
2019-05-09T16:35:02.726Z,59.07
2019-05-09T16:37:55.675Z,48.63
2019-05-09T16:40:02.415Z,46.10
2019-05-09T16:42:31.500Z,43.10
2019-05-09T16:45:00.513Z,62.07
2019-05-09T16:47:31.822Z,83.37
2019-05-09T16:50:01.322Z,71.73
2019-05-09T16:52:30.210Z,55.50
2019-05-09T16:55:08.219Z,54.53
2019-05-09T16:57:40.197Z,33.53
2019-05-09T17:00:11.475Z,43.30
2019-05-09T17:02:40.413Z,32.23
2019-05-09T17:05:09.643Z,34.93
2019-05-09T17:07:47.653Z,30.77
2019-05-09T17:10:18.104Z,72.30
2019-05-09T17:12:50.495Z,53.83
2019-05-09T17:15:19.644Z,44.93
2019-05-09T17:17:48.695Z,51.20
2019-05-09T17:20:20.779Z,28.27
2019-05-09T17:23:15.301Z,32.33
2019-05-09T17:25:47.985Z,38.77
2019-05-09T17:28:17.893Z,48.83
2019-05-09T17:30:49.239Z,57.97
2019-05-09T17:33:18.161Z,56.67
2019-05-09T17:35:48.469Z,114.97
2019-05-09T17:38:19.526Z,76.67
2019-05-09T17:40:49.482Z,72.33
2019-05-09T17:43:18.720Z,68.07
2019-05-09T17:45:48.011Z,83.97
2019-05-09T17:48:18.291Z,141.93
2019-05-09T17:50:47.699Z,151.53
2019-05-09T17:53:19.695Z,152.23
2019-05-09T17:55:48.663Z,134.17
2019-05-09T17:58:27.268Z,144.43
2019-05-09T18:00:49.919Z,184.07
2019-05-09T18:03:19.102Z,151.37
2019-05-09T18:05:48.750Z,122.57
2019-05-09T18:08:20.903Z,166.90
2019-05-09T18:10:50.238Z,141.67
2019-05-09T18:13:24.018Z,106.10
2019-05-09T18:15:52.754Z,89.07
2019-05-09T18:18:24.386Z,75.40
2019-05-09T18:20:57.838Z,65.43
2019-05-09T18:23:28.334Z,57.07
2019-05-09T18:25:58.543Z,53.87
2019-05-09T18:28:29.348Z,54.33
2019-05-09T18:30:58.698Z,46.60
2019-05-09T18:33:41.432Z,45.37
2019-05-09T18:36:10.589Z,46.80
2019-05-09T18:38:39.656Z,52.67
2019-05-09T18:41:10.211Z,63.40
2019-05-09T18:43:39.544Z,113.77
2019-05-09T18:46:09.009Z,100.83
2019-05-09T18:48:38.836Z,77.80
2019-05-09T18:51:07.885Z,101.80
2019-05-09T18:53:36.953Z,101.70
2019-05-09T18:56:06.039Z,88.63
2019-05-09T18:58:36.089Z,80.37
2019-05-09T19:01:05.835Z,76.87
2019-05-09T19:03:35.156Z,96.77
2019-05-09T19:06:04.513Z,99.80
2019-05-09T19:08:33.751Z,112.23
2019-05-09T19:11:05.309Z,113.33
2019-05-09T19:13:34.503Z,126.97
2019-05-09T19:16:16.569Z,91.87
2019-05-09T19:18:51.516Z,71.20
2019-05-09T19:21:39.187Z,72.17
2019-05-09T19:24:08.293Z,74.80
2019-05-09T19:26:38.538Z,92.03
2019-05-09T19:29:09.442Z,98.27
2019-05-09T19:31:38.685Z,130.90
2019-05-09T19:34:11.309Z,106.87
2019-05-09T19:36:40.406Z,142.17
2019-05-09T19:39:09.971Z,158.50
2019-05-09T19:41:38.990Z,113.13
2019-05-09T19:44:08.055Z,66.13
2019-05-09T19:46:37.278Z,61.73
2019-05-09T19:49:06.302Z,77.60
2019-05-09T19:51:37.855Z,69.93
2019-05-09T19:54:09.904Z,65.70
2019-05-09T19:56:42.474Z,81.03
2019-05-09T19:59:11.529Z,96.67
2019-05-09T20:01:52.287Z,94.43
2019-05-09T20:04:24.836Z,94.10
2019-05-09T20:06:53.789Z,106.97
2019-05-09T20:09:35.566Z,106.93
2019-05-09T20:12:42.351Z,91.30
2019-05-09T20:15:13.442Z,102.67
2019-05-09T20:17:43.023Z,93.00
2019-05-09T20:20:13.068Z,100.73
2019-05-09T20:22:52.959Z,104.40
2019-05-09T20:25:19.004Z,121.90
2019-05-09T20:27:48.002Z,90.73
2019-05-09T20:30:17.487Z,85.37
2019-05-09T20:32:46.516Z,93.83
2019-05-09T20:35:15.594Z,99.37
2019-05-09T20:37:44.905Z,104.33
2019-05-09T20:40:14.303Z,96.23
2019-05-09T20:42:43.418Z,91.37
2019-05-09T20:45:12.739Z,102.50
2019-05-09T20:47:44.933Z,107.60
2019-05-09T20:50:14.132Z,103.40
2019-05-09T20:52:43.432Z,102.40
2019-05-09T20:55:12.977Z,93.70
2019-05-09T20:57:45.546Z,72.50
2019-05-09T21:00:15.026Z,69.27
2019-05-09T21:02:46.437Z,69.13
2019-05-09T21:05:15.762Z,71.57
2019-05-09T21:07:45.235Z,72.30
2019-05-09T21:10:15.607Z,79.90
2019-05-09T21:12:47.453Z,76.63
2019-05-09T21:15:16.548Z,66.47
2019-05-09T21:17:45.811Z,76.17
2019-05-09T21:20:15.135Z,102.43
2019-05-09T21:22:47.412Z,100.63
2019-05-09T21:25:16.748Z,113.47
2019-05-09T21:27:46.063Z,107.43
2019-05-09T21:30:15.692Z,95.60
2019-05-09T21:32:45.039Z,71.70
2019-05-09T21:35:16.933Z,60.03
2019-05-09T21:37:45.989Z,65.10
2019-05-09T21:40:15.535Z,75.20
2019-05-09T21:42:44.564Z,86.90
2019-05-09T21:45:13.529Z,66.87
2019-05-09T21:47:44.438Z,71.67
2019-05-09T21:50:13.441Z,67.17
2019-05-09T21:52:42.348Z,68.37
2019-05-09T21:55:11.482Z,71.97
2019-05-09T21:57:43.692Z,75.77
2019-05-09T22:00:19.761Z,79.13
2019-05-09T22:02:48.853Z,81.83
2019-05-09T22:05:19.502Z,85.27
2019-05-09T22:07:48.482Z,75.90
2019-05-09T22:10:18.078Z,75.10
2019-05-09T22:12:47.020Z,72.30
2019-05-09T22:15:16.299Z,75.20
2019-05-09T22:17:45.356Z,71.60
2019-05-09T22:20:21.295Z,64.53
2019-05-09T22:22:50.428Z,62.00
2019-05-09T22:25:19.393Z,66.23
2019-05-09T22:27:48.558Z,66.83
2019-05-09T22:30:17.699Z,68.13
2019-05-09T22:32:46.875Z,67.80
2019-05-09T22:35:16.055Z,73.93
2019-05-09T22:37:45.090Z,69.13
2019-05-09T22:40:14.141Z,73.57
2019-05-09T22:42:43.261Z,76.77
2019-05-09T22:45:12.430Z,68.63
2019-05-09T22:47:41.455Z,60.50
2019-05-09T22:50:10.495Z,63.67
2019-05-09T22:52:41.876Z,59.93
2019-05-09T22:55:13.951Z,65.23
2019-05-09T22:57:42.895Z,59.47
2019-05-09T23:00:13.550Z,56.57
2019-05-09T23:02:42.628Z,50.90
2019-05-09T23:05:13.225Z,50.77
2019-05-09T23:07:42.353Z,45.73
2019-05-09T23:10:13.585Z,45.20
2019-05-09T23:12:42.526Z,48.07
2019-05-09T23:15:13.059Z,44.50
2019-05-09T23:17:42.031Z,45.50
2019-05-09T23:20:21.335Z,44.17
2019-05-09T23:22:52.389Z,46.57
2019-05-09T23:25:22.447Z,45.13
2019-05-09T23:27:51.520Z,45.17
2019-05-09T23:30:20.648Z,41.30
2019-05-09T23:32:49.694Z,44.10
2019-05-09T23:35:18.768Z,49.60
2019-05-09T23:37:47.742Z,48.60
2019-05-09T23:40:16.847Z,52.83
2019-05-09T23:42:46.082Z,54.43
2019-05-09T23:45:15.062Z,58.00
2019-05-09T23:47:46.969Z,60.67
2019-05-09T23:50:17.391Z,62.03
2019-05-09T23:52:46.425Z,54.77
2019-05-09T23:55:33.430Z,57.27
2019-05-09T23:58:21.790Z,55.77
